Valley Peak, Santa Cruz Island Reserve, California Weather observations

Data are for 10 minute period ending at time listed.
 Day   Time   Solar   Ave.   Ave.  Ave.  Vector  Max.   Baro.   Total    
  of    of     Rad.   Air    Rel.  Wind   Wind   Wind  Press.  Precip.   
Year   Day            Temp.  Hum.  Speed  Dir.   Gust                    
2014   (PST)  Kw/m2    F      %     mph   deg.    mph    mb.     in.     
-------------------------------------------------------------------------
 325   20:20   0.00   61.0    42   11.8   359    14.2   967.3    0.00 
 325   20:30   0.00   61.9    39   11.2   352    12.4   967.3    0.00 
 325   20:40   0.00   62.2    38   11.4     2    12.3   967.3    0.00 
 325   20:50   0.00   62.2    38   11.7   354    13.0   967.4    0.00 
 325   21:00   0.00   61.2    41   10.5   356    13.7   967.6    0.00 
 325   21:10   0.00   60.7    41    9.3   346    11.5   967.7    0.00 
 325   21:20   0.00   62.4    35    9.9   335    11.5   967.7    0.00 
 325   21:30   0.00   63.2    33   10.7   346    12.3   967.7    0.00 
 325   21:40   0.00   62.7    34   10.1   346    12.1   967.7    0.00 
 325   21:50   0.00   61.9    38   10.3   351    12.7   967.7    0.00 
 325   22:00   0.00   60.5    43    8.7   356    11.7   967.9    0.00 
 325   22:10   0.00   60.4    42    7.9    14    10.7   967.9    0.00 
 325   22:20   0.00   62.1    33    7.8     4    10.7   968.0    0.00 
 325   22:30   0.00   62.8    31    9.6     7    12.6   968.0    0.00 
 325   22:40   0.00   61.9    34   10.7    12    12.9   968.0    0.00 
 325   22:50   0.00   59.5    45   10.0    22    11.5   968.1    0.00 
 325   23:00   0.00   59.2    46   12.0     8    14.6   968.2    0.00 
 325   23:10   0.00   58.9    48   11.3    22    13.5   968.4    0.00 
 325   23:20   0.00   58.8    47   11.2    13    14.0   968.3    0.00 
 325   23:30   0.00   60.6    37   11.2   358    13.1   968.3    0.00 
 325   23:40   0.00   62.0    34   11.7   358    14.1   968.2    0.00 
 325   23:50   0.00   60.1    41   10.8    15    13.5   968.2    0.00 
 326    0:00   0.00   58.5    48   12.5    20    15.5   968.1    0.00 
 326    0:10   0.00   57.7    51   12.1    19    15.6   968.2    0.00 
 326    0:20   0.00   57.1    53   11.9    17    15.3   968.2    0.00 
 326    0:30   0.00   57.6    51   13.4    13    17.0   968.3    0.00 
 326    0:40   0.00   57.1    55   13.7    16    17.4   968.2    0.00 
 326    0:50   0.00   56.3    56   16.0    16    18.3   968.1    0.00 
 326    1:00   0.00   56.1    53   13.8     3    19.2   968.2    0.00 
 326    1:10   0.00   57.2    49   13.8   345    18.4   968.2    0.00 
 326    1:20   0.00   57.6    47   15.6   353    19.4   968.1    0.00 
 326    1:30   0.00   58.3    43   16.0     8    20.5   968.1    0.00 
 326    1:40   0.00   57.8    44   16.2    13    20.8   968.1    0.00 
 326    1:50   0.00   57.7    44   15.0    10    18.3   968.1    0.00 
 326    2:00   0.00   57.4    46   16.2    11    20.0   968.1    0.00 
 326    2:10   0.00   57.1    47   14.9    10    18.3   968.2    0.00 
 326    2:20   0.00   56.5    48   16.5    19    19.1   968.2    0.00 
 326    2:30   0.00   57.9    42   16.0    11    18.3   968.2    0.00 
 326    2:40   0.00   58.9    39   13.7    12    17.2   968.2    0.00 
 326    2:50   0.00   58.1    44   13.4    15    16.4   968.3    0.00 
 326    3:00   0.00   57.0    50   12.8    11    14.6   968.4    0.00 
 326    3:10   0.00   59.1    38   10.2   348    12.8   968.5    0.00 
 326    3:20   0.00   60.9    32    8.9   340    11.5   968.5    0.00 
 326    3:30   0.00   61.0    31    9.9   344    12.0   968.4    0.00 
 326    3:40   0.00   61.4    30    9.7   339    13.2   968.4    0.00 
 326    3:50   0.00   60.6    32    7.7   354    12.3   968.5    0.00 
 326    4:00   0.00   59.8    35    5.7   349     9.7   968.5    0.00 
 326    4:10   0.00   58.0    42    8.4    19    11.0   968.4    0.00 
 326    4:20   0.00   56.4    49    9.7    11    11.7   968.3    0.00 
 326    4:30   0.00   56.6    47   10.8     4    13.5   968.3    0.00 
 326    4:40   0.00   57.5    44   13.2     9    15.9   968.3    0.00 
 326    4:50   0.00   57.4    44   11.6    15    16.4   968.4    0.00 
 326    5:00   0.00   57.2    44    8.5     4    13.2   968.4    0.00 
 326    5:10   0.00   57.4    41    5.0   325     7.7   968.6    0.00 
 326    5:20   0.00   58.6    38    8.3   342    12.9   968.7    0.00 
 326    5:30   0.00   58.4    40    6.6   294    10.3   968.7    0.00 
 326    5:40   0.00   57.3    45    8.4   264    12.3   968.8    0.00 
 326    5:50   0.00   57.9    42    6.3   269     9.4   968.8    0.00 
 326    6:00   0.00   59.1    37    5.3   343     6.4   968.8    0.00 
 326    6:10   0.00   58.7    40    4.8    37     6.2   968.8    0.00 
 326    6:20   0.00   57.3    44    4.4    56     6.1   968.8    0.00 
 326    6:30   0.00   56.9    42    3.0    95     4.9   968.9    0.00 
 326    6:40   0.00   57.0    42    4.2   130     6.7   968.9    0.00 
 326    6:50   0.01   56.9    44    5.4   135     7.2   969.0    0.00 
 326    7:00   0.04   57.0    46    5.3   146     6.4   968.9    0.00 
 326    7:10   0.07   57.7    50    5.0   138     6.1   969.0    0.00 
 326    7:20   0.09   58.5    50    2.6   128     4.0   969.2    0.00 
 326    7:30   0.11   59.3    49    1.8   147     3.5   969.3    0.00 
 326    7:40   0.15   59.6    50    2.7   138     4.7   969.4    0.00 
 326    7:50   0.18   60.3    51    3.8   146     5.8   969.4    0.00 
 326    8:00   0.21   61.0    49    3.1   180     5.9   969.6    0.00 
 326    8:10   0.24   61.4    45    1.6   140     3.9   969.6    0.00 
 326    8:20   0.27   62.8    41    2.0   168     5.5   969.6    0.00 
 326    8:30   0.30   63.1    43    4.0   176     5.8   969.7    0.00 
 326    8:40   0.32   62.8    45    2.0   143     5.7   969.7    0.00 
 326    8:50   0.35   63.1    45    1.4    94     4.1   969.6    0.00 
 326    9:00   0.38   63.7    46    1.4   347     3.9   969.7    0.00 
 326    9:10   0.40   64.1    49    4.2    42     8.0   969.7    0.00 
 326    9:20   0.39   63.9    49    5.6    38     8.6   969.8    0.00 
 326    9:30   0.43   64.0    47    5.9    40     8.6   969.9    0.00 
 326    9:40   0.47   64.8    45    3.1    46     8.0   970.0    0.00 
 326    9:50   0.48   65.1    45    2.4    41     4.9   970.1    0.00 
 326   10:00   0.49   65.4    45    4.5    34     9.3   970.2    0.00 
 326   10:10   0.49   64.8    44    5.2    14    15.0   970.1    0.00 
 326   10:20   0.53   63.2    45    8.1     8    15.7   970.0    0.00 
 326   10:30   0.55   62.5    47    8.3   346    15.0   969.8    0.00 
 326   10:40   0.56   63.2    49    5.4   350    11.2   969.6    0.00 
 326   10:50   0.56   65.0    48    4.7    35    11.0   969.5    0.00 
 326   11:00   0.57   65.6    47    6.5    24    13.7   969.4    0.00 
 326   11:10   0.59   65.1    48    6.8    17    13.2   969.3    0.00 
 326   11:20   0.59   65.5    46    6.6   345    13.4   969.2    0.00 
 326   11:30   0.58   65.6    45    7.8   349    17.4   969.2    0.00 
 326   11:40   0.59   65.2    46   11.1   332    21.9   969.1    0.00 
 326   11:50   0.60   65.2    48   13.4   323    24.1   969.0    0.00 
 326   12:00   0.60   65.3    48   12.5   339    24.5   968.7    0.00 
 326   12:10   0.59   66.0    47   12.7   338    21.9   968.6    0.00 
 326   12:20   0.57   65.7    47   17.1   323    27.0   968.4    0.00 
 326   12:30   0.57   65.7    47   16.5   327    26.0   968.3    0.00 
 326   12:40   0.56   66.7    47   11.7   329    20.6   968.4    0.00 
 326   12:50   0.55   67.3    47   11.6   325    26.5   968.2    0.00 
 326   13:00   0.54   66.7    49   19.3   317    29.5   967.9    0.00 
 326   13:10   0.52   67.0    49    9.7   332    18.4   968.1    0.00 
 326   13:20   0.49   69.1    47    5.8   326    19.8   967.7    0.00 
 326   13:30   0.49   68.5    49   14.7   306    31.1   967.3    0.00 
 326   13:40   0.47   67.4    51   19.0   303    30.2   967.0    0.00 
 326   13:50   0.45   66.8    53   20.3   314    32.8   967.0    0.00 
 326   14:00   0.43   66.8    54   19.9   310    33.0   966.9    0.00 
 326   14:10   0.40   67.5    53   14.3   314    28.0   966.8    0.00 
 326   14:20   0.38   69.0    52    6.9   299    14.5   966.9    0.00 
 326   14:30   0.34   69.5    53    7.6   284    21.9   966.8    0.00 
 326   14:40   0.33   69.0    54   11.3   279    21.7   966.7    0.00 
 326   14:50   0.31   68.7    57   10.3   269    28.4   966.7    0.00 
 326   15:00   0.28   67.4    58   16.5   299    34.9   966.5    0.00 
 326   15:10   0.25   65.6    63   23.6   315    37.7   966.2    0.00 
 326   15:20   0.22   64.4    67   23.8   323    36.9   966.1    0.00 
 326   15:30   0.19   64.3    67   19.1   331    33.0   966.3    0.00 
 326   15:40   0.17   64.7    65   19.2   328    30.8   966.4    0.00 
 326   15:50   0.14   64.8    65   20.4   326    32.8   966.3    0.00 
 326   16:00   0.11   64.8    65   20.1   328    31.6   966.2    0.00 
 326   16:10   0.08   64.7    65   22.6   322    37.8   966.1    0.00 
 326   16:20   0.05   64.7    65   19.8   324    37.3   966.1    0.00 
 326   16:30   0.03   64.4    65   19.3   321    36.8   966.1    0.00 
 326   16:40   0.01   64.2    66   20.0   323    35.7   966.2    0.00 
 326   16:50   0.00   63.6    68   22.8   325    40.2   966.2    0.00 
 326   17:00   0.00   63.0    70   23.2   325    36.0   966.0    0.00 
 326   17:10   0.00   63.3    69   22.4   324    36.6   965.9    0.00 
 326   17:20   0.00   63.0    70   20.6   330    33.3   965.8    0.00 
 326   17:30   0.00   63.1    70   21.9   328    39.2   965.8    0.00 
 326   17:40   0.00   62.7    72   20.5   328    37.5   965.7    0.00 
 326   17:50   0.00   62.5    74   20.6   329    38.7   965.7    0.00 
 326   18:00   0.00   62.4    74   20.2   332    33.8   965.7    0.00 
 326   18:10   0.00   62.5    74   20.2   335    32.7   965.7    0.00 
 326   18:20   0.00   62.3    75   20.3   334    35.7   965.7    0.00 
 326   18:30   0.00   62.3    75   20.3   328    33.8   965.7    0.00 
 326   18:40   0.00   62.4    75   22.7   323    33.6   965.7    0.00 
 326   18:50   0.00   62.4    75   22.7   323    33.9   965.8    0.00 
 326   19:00   0.00   62.3    75   19.2   330    32.2   965.9    0.00 
 326   19:10   0.00   62.5    74   19.7   329    34.0   966.0    0.00 
 326   19:20   0.00   62.9    72   19.7   329    29.7   966.1    0.00 
 326   19:30   0.00   63.4    70   20.1   333    31.0   966.2    0.00 
 326   19:40   0.00   63.1    70   17.5   340    29.6   966.3    0.00 
 326   19:50   0.00   62.9    71   19.7   335    32.7   966.3    0.00 
 326   20:00   0.00   62.2    73   20.8   340    36.1   966.4    0.00 
 326   20:10   0.00   61.8    75   23.2   335    33.4   966.3    0.00 

Return to Valley Peak, Santa Cruz Island Reserve graphs page.


Western Regional Climate Center,wrcc@dri.edu